createdAt,value
2022-12-12T00:02:52.327Z,42.30
2022-12-12T00:07:55.861Z,42.30
2022-12-12T00:13:00.481Z,42.50
2022-12-12T00:18:03.630Z,42.70
2022-12-12T00:23:06.780Z,42.70
2022-12-12T00:28:11.283Z,42.60
2022-12-12T00:33:14.422Z,42.50
2022-12-12T00:38:18.285Z,42.60
2022-12-12T00:43:22.817Z,42.60
2022-12-12T00:48:25.987Z,42.60
2022-12-12T00:53:29.181Z,42.70
2022-12-12T00:58:34.580Z,42.70
2022-12-12T01:03:40.203Z,42.70
2022-12-12T01:08:43.691Z,42.70
2022-12-12T01:13:50.227Z,42.80
2022-12-12T01:18:53.523Z,42.70
2022-12-12T01:23:56.865Z,43.60
2022-12-12T01:29:01.332Z,42.90
2022-12-12T01:34:04.458Z,42.90
2022-12-12T01:39:07.619Z,42.80
2022-12-12T01:44:40.603Z,42.70
2022-12-12T01:49:47.403Z,42.70
2022-12-12T01:54:55.649Z,43.40
2022-12-12T02:00:01.966Z,42.50
2022-12-12T02:05:13.013Z,42.70
2022-12-12T02:10:16.338Z,42.70
2022-12-12T02:15:20.979Z,42.80
2022-12-12T02:20:49.720Z,42.80
2022-12-12T02:26:08.926Z,42.70
2022-12-12T02:31:19.935Z,42.80
2022-12-12T02:36:33.361Z,42.70
2022-12-12T02:41:40.529Z,42.70
2022-12-12T02:46:52.518Z,42.80
2022-12-12T02:51:58.360Z,42.60
2022-12-12T02:57:03.351Z,42.60
2022-12-12T03:02:27.508Z,42.50
2022-12-12T03:07:49.261Z,42.40
2022-12-12T03:13:00.984Z,42.60
2022-12-12T03:18:17.480Z,42.70
2022-12-12T03:23:25.756Z,42.60
2022-12-12T03:28:34.312Z,42.70
2022-12-12T03:33:42.689Z,42.90
2022-12-12T03:38:57.071Z,42.90
2022-12-12T03:44:05.776Z,42.80
2022-12-12T03:49:15.285Z,42.80
2022-12-12T03:54:23.505Z,42.70
2022-12-12T03:59:31.551Z,42.60
2022-12-12T04:04:39.942Z,42.60
2022-12-12T04:10:00.967Z,42.70
2022-12-12T04:15:18.787Z,42.70
2022-12-12T04:20:45.872Z,42.70
2022-12-12T04:26:22.578Z,42.70
2022-12-12T04:31:29.290Z,42.60
2022-12-12T04:36:35.894Z,42.70
2022-12-12T04:41:41.712Z,42.80
2022-12-12T04:46:46.904Z,42.70
2022-12-12T04:51:54.135Z,42.70
2022-12-12T04:57:01.022Z,43.00
2022-12-12T05:02:11.574Z,42.80
2022-12-12T05:07:22.480Z,43.00
2022-12-12T05:12:25.646Z,43.00
2022-12-12T05:17:36.370Z,43.20
2022-12-12T05:22:40.977Z,43.20
2022-12-12T05:27:44.169Z,43.10
2022-12-12T05:32:47.297Z,43.00
2022-12-12T05:37:52.371Z,42.80
2022-12-12T05:42:55.612Z,42.60
2022-12-12T05:47:58.988Z,42.50
2022-12-12T05:53:03.438Z,42.50
2022-12-12T05:58:06.639Z,42.70
2022-12-12T06:03:09.768Z,42.70
2022-12-12T06:08:14.612Z,42.70
2022-12-12T06:13:17.807Z,42.50
2022-12-12T06:18:20.920Z,42.80
2022-12-12T06:23:25.580Z,42.70
2022-12-12T06:28:28.692Z,43.40
2022-12-12T06:33:32.492Z,43.20
2022-12-12T06:38:37.632Z,42.80
2022-12-12T06:43:41.332Z,42.70
2022-12-12T06:48:45.402Z,42.50
2022-12-12T06:53:49.979Z,42.50
2022-12-12T06:58:54.463Z,42.70
2022-12-12T07:03:58.428Z,42.50
2022-12-12T07:09:03.250Z,42.70
2022-12-12T07:14:07.674Z,42.70
2022-12-12T07:19:11.258Z,42.30
2022-12-12T07:24:16.753Z,42.30
2022-12-12T07:29:19.916Z,42.10
2022-12-12T07:34:23.088Z,42.20
2022-12-12T07:39:30.115Z,42.30
2022-12-12T07:44:33.227Z,42.10
2022-12-12T07:49:36.344Z,42.10
2022-12-12T07:54:41.045Z,42.20
2022-12-12T07:59:44.190Z,42.30
2022-12-12T08:04:47.492Z,42.30
2022-12-12T08:09:52.128Z,42.50
2022-12-12T08:14:55.265Z,42.60
2022-12-12T08:19:58.472Z,42.80
2022-12-12T08:25:03.251Z,42.70
2022-12-12T08:30:10.275Z,42.70
2022-12-12T08:35:14.036Z,42.70
2022-12-12T08:40:18.995Z,42.70
2022-12-12T08:45:22.242Z,42.70
2022-12-12T08:50:25.568Z,42.60
2022-12-12T08:55:30.275Z,42.60
2022-12-12T09:00:33.391Z,42.60
2022-12-12T09:05:36.953Z,42.70
2022-12-12T09:10:41.876Z,42.70
2022-12-12T09:15:46.178Z,42.70
2022-12-12T09:20:50.716Z,42.70
2022-12-12T09:25:55.625Z,42.80
2022-12-12T09:30:58.775Z,42.70
2022-12-12T09:36:04.216Z,42.70
2022-12-12T09:41:16.554Z,42.50
2022-12-12T09:46:31.187Z,42.30
2022-12-12T09:51:35.683Z,42.20
2022-12-12T09:56:48.987Z,42.30
2022-12-12T10:02:01.791Z,42.50
2022-12-12T10:07:14.796Z,42.70
2022-12-12T10:12:22.344Z,42.70
2022-12-12T10:17:30.310Z,42.70
2022-12-12T10:22:39.317Z,42.70
2022-12-12T10:27:44.343Z,42.50
2022-12-12T10:33:06.744Z,42.40
2022-12-12T10:38:25.483Z,41.80
2022-12-12T10:43:35.464Z,42.10
2022-12-12T10:48:39.746Z,42.20
2022-12-12T10:53:43.848Z,42.00
2022-12-12T10:58:55.500Z,41.90
2022-12-12T11:04:01.357Z,41.30
2022-12-12T11:09:09.978Z,41.50
2022-12-12T11:14:28.386Z,41.80
2022-12-12T11:19:39.326Z,41.70
2022-12-12T11:24:46.338Z,41.30
2022-12-12T11:29:53.034Z,41.70
2022-12-12T11:34:59.106Z,41.60
2022-12-12T11:40:02.432Z,41.90
2022-12-12T11:45:23.763Z,42.20
2022-12-12T11:50:29.412Z,41.80
2022-12-12T11:55:45.891Z,41.90
2022-12-12T12:00:58.733Z,42.00
2022-12-12T12:06:18.981Z,42.20
2022-12-12T12:11:31.093Z,42.20
2022-12-12T12:16:44.998Z,41.60
2022-12-12T12:22:01.973Z,42.50
2022-12-12T12:27:12.528Z,41.90
2022-12-12T12:32:30.729Z,42.20
2022-12-12T12:37:48.340Z,42.30
2022-12-12T12:43:06.755Z,43.30
2022-12-12T12:48:19.172Z,43.00
2022-12-12T12:53:30.247Z,43.20
2022-12-12T12:58:40.187Z,42.60
2022-12-12T13:03:51.363Z,42.60
2022-12-12T13:09:02.541Z,42.40
2022-12-12T13:14:16.332Z,42.90
2022-12-12T13:19:29.197Z,42.20
2022-12-12T13:24:38.984Z,41.90
2022-12-12T13:29:49.029Z,41.80
2022-12-12T13:34:58.761Z,41.90
2022-12-12T13:40:05.074Z,42.00
2022-12-12T13:45:46.506Z,42.30
2022-12-12T13:51:30.318Z,41.80
2022-12-12T13:56:35.785Z,41.90
2022-12-12T14:01:40.918Z,42.40
2022-12-12T14:06:45.602Z,42.10
2022-12-12T14:11:50.824Z,42.20
2022-12-12T14:16:57.857Z,42.20
2022-12-12T14:22:02.750Z,41.80
2022-12-12T14:27:07.486Z,41.60
2022-12-12T14:32:36.765Z,41.20
2022-12-12T14:37:52.197Z,40.50
2022-12-12T14:43:20.125Z,41.10
2022-12-12T14:48:25.662Z,41.20
2022-12-12T14:53:33.935Z,41.10
2022-12-12T14:58:39.976Z,41.10
2022-12-12T15:03:47.053Z,41.40
2022-12-12T15:08:52.569Z,41.40
2022-12-12T15:13:57.194Z,41.20
2022-12-12T15:19:00.942Z,41.50
2022-12-12T15:24:06.076Z,41.70
2022-12-12T15:29:14.980Z,42.00
2022-12-12T15:34:40.268Z,42.00
2022-12-12T15:39:44.844Z,41.30
2022-12-12T15:44:49.229Z,41.50
2022-12-12T15:49:55.022Z,41.50
2022-12-12T15:55:03.186Z,41.20
2022-12-12T16:00:09.770Z,41.30
2022-12-12T16:05:26.953Z,41.40
2022-12-12T16:10:31.478Z,40.70
2022-12-12T16:15:37.734Z,41.10
2022-12-12T16:20:46.102Z,41.10
2022-12-12T16:25:51.404Z,40.80
2022-12-12T16:30:58.037Z,41.10
2022-12-12T16:36:03.500Z,41.10
2022-12-12T16:41:09.936Z,41.10
2022-12-12T16:46:19.799Z,41.00
2022-12-12T16:51:28.446Z,41.00
2022-12-12T16:56:32.964Z,41.00
2022-12-12T17:01:38.917Z,41.30
2022-12-12T17:06:42.299Z,41.20
2022-12-12T17:11:47.162Z,41.10
2022-12-12T17:16:51.076Z,40.90
2022-12-12T17:21:54.249Z,40.50
2022-12-12T17:26:58.929Z,40.50
2022-12-12T17:32:02.116Z,40.30
2022-12-12T17:37:05.217Z,40.30
2022-12-12T17:42:09.762Z,39.80
2022-12-12T17:47:13.035Z,39.60
2022-12-12T17:52:16.779Z,40.00
2022-12-12T17:57:25.217Z,40.00
2022-12-12T18:02:28.855Z,40.00
2022-12-12T18:07:31.973Z,41.00
2022-12-12T18:12:36.419Z,40.10
2022-12-12T18:17:40.694Z,39.70
2022-12-12T18:22:43.792Z,39.90
2022-12-12T18:27:48.264Z,39.80
2022-12-12T18:32:51.395Z,39.90
2022-12-12T18:37:54.492Z,39.70
2022-12-12T18:42:59.006Z,39.80
2022-12-12T18:48:02.218Z,39.40
2022-12-12T18:53:05.374Z,39.40
2022-12-12T18:58:10.906Z,39.30
2022-12-12T19:03:14.110Z,39.20
2022-12-12T19:08:17.368Z,39.30
2022-12-12T19:13:21.863Z,39.40
2022-12-12T19:18:25.230Z,39.40
2022-12-12T19:23:28.399Z,39.70
2022-12-12T19:28:33.450Z,39.80
2022-12-12T19:33:36.687Z,39.30
2022-12-12T19:38:39.841Z,39.20
2022-12-12T19:43:46.120Z,39.30
2022-12-12T19:48:50.016Z,38.90
2022-12-12T19:53:56.828Z,38.90
2022-12-12T19:59:02.593Z,38.50
2022-12-12T20:04:07.870Z,38.40
2022-12-12T20:09:11.785Z,38.30
2022-12-12T20:14:18.566Z,38.30
2022-12-12T20:19:22.133Z,38.10
2022-12-12T20:24:25.539Z,38.50
2022-12-12T20:29:30.091Z,38.50
2022-12-12T20:34:33.198Z,39.00
2022-12-12T20:39:37.408Z,38.90
2022-12-12T20:44:42.242Z,38.90
2022-12-12T20:49:45.561Z,38.60
2022-12-12T20:54:48.866Z,38.50
2022-12-12T20:59:54.836Z,38.80
2022-12-12T21:04:57.966Z,38.70
2022-12-12T21:10:01.161Z,38.70
2022-12-12T21:15:06.177Z,38.60
2022-12-12T21:20:10.142Z,39.20
2022-12-12T21:25:13.444Z,38.50
2022-12-12T21:30:18.308Z,38.70
2022-12-12T21:35:21.545Z,38.30
2022-12-12T21:40:24.727Z,38.50
2022-12-12T21:45:29.249Z,38.10
2022-12-12T21:50:32.427Z,38.00
2022-12-12T21:55:37.997Z,38.80
2022-12-12T22:00:42.619Z,38.40
2022-12-12T22:05:45.806Z,38.30
2022-12-12T22:10:54.352Z,38.40
2022-12-12T22:15:59.924Z,38.30
2022-12-12T22:21:05.253Z,38.30
2022-12-12T22:26:15.253Z,38.10
2022-12-12T22:31:20.497Z,37.50
2022-12-12T22:36:26.706Z,37.80
2022-12-12T22:41:30.991Z,37.70
2022-12-12T22:46:40.605Z,37.90
2022-12-12T22:51:45.866Z,37.70
2022-12-12T22:56:49.049Z,38.00
2022-12-12T23:01:53.621Z,38.00
2022-12-12T23:06:56.696Z,37.70
2022-12-12T23:11:59.919Z,38.00
2022-12-12T23:17:04.514Z,37.80
2022-12-12T23:22:07.748Z,37.80
2022-12-12T23:27:10.974Z,37.60
2022-12-12T23:32:15.635Z,37.80
2022-12-12T23:37:18.807Z,37.70
2022-12-12T23:42:22.058Z,37.70
2022-12-12T23:47:26.594Z,37.70
2022-12-12T23:52:29.748Z,37.40
2022-12-12T23:57:33.200Z,37.60
